DAL462 MGGT-MMUN
Flight info
| Callsign | DAL462 |
|---|---|
| Flight time | N/A |
| Altitude | 41000 |
| Route | AUR DCT VILDA DCT JERON DCT AMINU DCT CTM UG765 PAULE PAULE3G |
| Aircraft | A359/H-SDE2E3GHIJ3J4J5LM1ORWXY/LB1D1 |
Departure
| Time | 2026-04-21 05:37 |
|---|---|
| Airport | La Aurora International Airport (MGGT) |
Arrival
| Time | N/A |
|---|---|
| Airport | Cancún International Airport (MMUN) |
| Time | Latitude | Longitude | Altitude | Speed | Heading |
|---|---|---|---|---|---|
| 2026-04-21 05:10 | 14.58724 | -90.52981 | 4895 ft | 0 kts | 290° |
| 2026-04-21 05:26 | 14.58721 | -90.52972 | 4892 ft | 3 kts | 290° |
| 2026-04-21 05:26 | 14.58714 | -90.52952 | 4892 ft | 3 kts | 290° |
| 2026-04-21 05:27 | 14.58708 | -90.52933 | 4892 ft | 3 kts | 290° |
| 2026-04-21 05:27 | 14.58701 | -90.52913 | 4892 ft | 3 kts | 290° |
| 2026-04-21 05:27 | 14.58695 | -90.52893 | 4891 ft | 3 kts | 290° |
| 2026-04-21 05:27 | 14.58688 | -90.52873 | 4891 ft | 3 kts | 290° |
| 2026-04-21 05:28 | 14.58681 | -90.52857 | 4891 ft | 3 kts | 326° |
| 2026-04-21 05:28 | 14.58677 | -90.52853 | 4891 ft | 2 kts | 34° |
| 2026-04-21 05:28 | 14.58666 | -90.52860 | 4891 ft | 3 kts | 31° |
| 2026-04-21 05:28 | 14.58652 | -90.52868 | 4891 ft | 2 kts | 22° |
| 2026-04-21 05:31 | 14.58653 | -90.52867 | 4891 ft | 1 kts | 23° |
| 2026-04-21 05:31 | 14.58678 | -90.52849 | 4891 ft | 10 kts | 44° |
| 2026-04-21 05:32 | 14.58688 | -90.52793 | 4893 ft | 12 kts | 85° |
| 2026-04-21 05:32 | 14.58669 | -90.52717 | 4892 ft | 5 kts | 147° |
| 2026-04-21 05:32 | 14.58639 | -90.52716 | 4891 ft | 9 kts | 192° |
| 2026-04-21 05:32 | 14.58542 | -90.52745 | 4890 ft | 17 kts | 198° |
| 2026-04-21 05:33 | 14.58417 | -90.52793 | 4889 ft | 22 kts | 196° |
| 2026-04-21 05:33 | 14.58254 | -90.52841 | 4884 ft | 27 kts | 197° |
| 2026-04-21 05:33 | 14.58060 | -90.52900 | 4880 ft | 31 kts | 197° |
| 2026-04-21 05:33 | 14.57834 | -90.52968 | 4875 ft | 37 kts | 197° |
| 2026-04-21 05:34 | 14.57577 | -90.53050 | 4870 ft | 41 kts | 197° |
| 2026-04-21 05:34 | 14.57350 | -90.53123 | 4862 ft | 24 kts | 200° |
| 2026-04-21 05:34 | 14.57178 | -90.53184 | 4857 ft | 28 kts | 199° |
| 2026-04-21 05:34 | 14.57140 | -90.53196 | 4860 ft | 0 kts | 197° |
| 2026-04-21 05:35 | 14.57113 | -90.53205 | 4861 ft | 13 kts | 196° |
| 2026-04-21 05:35 | 14.57037 | -90.53191 | 4857 ft | 10 kts | 112° |
| 2026-04-21 05:35 | 14.57056 | -90.53149 | 4858 ft | 2 kts | 27° |
| 2026-04-21 05:36 | 14.57069 | -90.53146 | 4859 ft | 0 kts | 17° |
| 2026-04-21 05:36 | 14.57163 | -90.53116 | 4856 ft | 49 kts | 17° |
| 2026-04-21 05:37 | 14.57714 | -90.52940 | 4874 ft | 118 kts | 17° |
| 2026-04-21 05:37 | 14.58690 | -90.52625 | 5002 ft | 167 kts | 18° |
| 2026-04-21 05:37 | 14.59780 | -90.52256 | 5953 ft | 159 kts | 17° |
| 2026-04-21 05:37 | 14.60815 | -90.51769 | 6631 ft | 177 kts | 28° |
| 2026-04-21 05:38 | 14.61944 | -90.50994 | 7000 ft | 213 kts | 35° |
| 2026-04-21 05:38 | 14.63218 | -90.49981 | 7402 ft | 247 kts | 38° |
| 2026-04-21 05:38 | 14.64602 | -90.48842 | 8281 ft | 259 kts | 39° |
| 2026-04-21 05:38 | 14.66031 | -90.47678 | 9340 ft | 266 kts | 38° |
| 2026-04-21 05:39 | 14.67539 | -90.46482 | 10243 ft | 280 kts | 39° |
| 2026-04-21 05:39 | 14.69159 | -90.45223 | 10761 ft | 305 kts | 39° |
| 2026-04-21 05:39 | 14.70950 | -90.43849 | 11239 ft | 333 kts | 38° |
| 2026-04-21 05:39 | 14.72866 | -90.42401 | 12174 ft | 346 kts | 38° |
| 2026-04-21 05:40 | 14.74832 | -90.40931 | 13355 ft | 354 kts | 37° |
| 2026-04-21 05:40 | 14.76851 | -90.39423 | 14426 ft | 362 kts | 38° |
| 2026-04-21 05:40 | 14.78918 | -90.37873 | 15436 ft | 370 kts | 37° |
| 2026-04-21 05:40 | 14.81035 | -90.36283 | 16413 ft | 379 kts | 37° |
| 2026-04-21 05:41 | 14.83190 | -90.34662 | 17389 ft | 387 kts | 38° |
| 2026-04-21 05:41 | 14.85383 | -90.33009 | 18251 ft | 393 kts | 37° |
| 2026-04-21 05:41 | 14.87611 | -90.31328 | 18853 ft | 399 kts | 37° |
| 2026-04-21 05:41 | 14.89859 | -90.29631 | 19462 ft | 403 kts | 37° |
| 2026-04-21 05:42 | 14.92133 | -90.27915 | 20196 ft | 405 kts | 37° |
| 2026-04-21 05:42 | 14.94417 | -90.26192 | 20917 ft | 407 kts | 36° |
| 2026-04-21 05:42 | 14.96716 | -90.24456 | 21624 ft | 410 kts | 36° |
| 2026-04-21 05:42 | 14.99036 | -90.22705 | 22338 ft | 413 kts | 36° |
| 2026-04-21 05:43 | 15.01339 | -90.20966 | 23051 ft | 416 kts | 36° |
| 2026-04-21 05:43 | 15.03676 | -90.19200 | 23739 ft | 419 kts | 36° |
| 2026-04-21 05:43 | 15.06039 | -90.17414 | 24307 ft | 423 kts | 36° |
| 2026-04-21 05:43 | 15.08458 | -90.15591 | 24864 ft | 428 kts | 36° |
| 2026-04-21 05:44 | 15.10956 | -90.13942 | 25391 ft | 434 kts | 30° |
| 2026-04-21 05:44 | 15.13621 | -90.12425 | 25991 ft | 439 kts | 28° |
| 2026-04-21 05:44 | 15.16376 | -90.10919 | 26593 ft | 445 kts | 28° |
| 2026-04-21 05:44 | 15.19101 | -90.09459 | 27182 ft | 450 kts | 27° |
| 2026-04-21 05:45 | 15.21911 | -90.07967 | 27762 ft | 455 kts | 27° |
| 2026-04-21 05:45 | 15.24746 | -90.06463 | 28379 ft | 460 kts | 28° |
| 2026-04-21 05:45 | 15.27604 | -90.04943 | 28957 ft | 465 kts | 28° |
| 2026-04-21 05:45 | 15.30502 | -90.03398 | 29496 ft | 471 kts | 27° |
| 2026-04-21 05:46 | 15.33432 | -90.01833 | 30098 ft | 475 kts | 27° |
| 2026-04-21 05:46 | 15.36382 | -90.00253 | 30608 ft | 479 kts | 27° |
| 2026-04-21 05:46 | 15.39353 | -89.98662 | 31114 ft | 482 kts | 27° |
| 2026-04-21 05:46 | 15.42350 | -89.97056 | 31653 ft | 485 kts | 27° |
| 2026-04-21 05:47 | 15.45361 | -89.95441 | 32109 ft | 489 kts | 27° |
| 2026-04-21 05:47 | 15.48382 | -89.93821 | 32564 ft | 493 kts | 27° |
| 2026-04-21 05:47 | 15.51443 | -89.92180 | 32975 ft | 496 kts | 27° |
| 2026-04-21 05:47 | 15.54514 | -89.90532 | 33414 ft | 500 kts | 27° |
| 2026-04-21 05:48 | 15.57624 | -89.88863 | 33828 ft | 503 kts | 27° |
| 2026-04-21 05:48 | 15.60704 | -89.87209 | 34222 ft | 506 kts | 27° |
| 2026-04-21 05:48 | 15.63849 | -89.85520 | 34557 ft | 509 kts | 27° |
| 2026-04-21 05:48 | 15.67009 | -89.83822 | 34931 ft | 510 kts | 27° |
| 2026-04-21 05:49 | 15.69099 | -89.82698 | 35233 ft | 510 kts | 27° |
| 2026-04-21 05:49 | 15.73305 | -89.80437 | 35857 ft | 510 kts | 27° |
| 2026-04-21 05:49 | 15.76462 | -89.78739 | 36323 ft | 509 kts | 26° |
| 2026-04-21 05:49 | 15.78540 | -89.77621 | 36600 ft | 509 kts | 26° |
| 2026-04-21 05:50 | 15.81683 | -89.75930 | 37063 ft | 508 kts | 26° |
| 2026-04-21 05:50 | 15.84822 | -89.74240 | 37519 ft | 507 kts | 26° |
| 2026-04-21 05:50 | 15.87969 | -89.72545 | 37960 ft | 507 kts | 26° |
| 2026-04-21 05:50 | 15.91090 | -89.70863 | 38397 ft | 506 kts | 26° |
| 2026-04-21 05:51 | 15.94223 | -89.69175 | 38782 ft | 505 kts | 26° |
| 2026-04-21 05:51 | 15.97325 | -89.67503 | 39156 ft | 504 kts | 26° |
| 2026-04-21 05:51 | 16.00434 | -89.65826 | 39530 ft | 503 kts | 26° |
| 2026-04-21 05:51 | 16.03548 | -89.64145 | 39860 ft | 502 kts | 26° |
| 2026-04-21 05:52 | 16.06647 | -89.62473 | 40211 ft | 501 kts | 26° |
| 2026-04-21 05:52 | 16.09733 | -89.60807 | 40581 ft | 499 kts | 26° |
| 2026-04-21 05:52 | 16.12784 | -89.59158 | 40938 ft | 498 kts | 26° |
| 2026-04-21 05:52 | 16.15868 | -89.57493 | 41097 ft | 498 kts | 26° |
| 2026-04-21 05:53 | 16.22001 | -89.54177 | 41108 ft | 496 kts | 26° |
| 2026-04-21 05:53 | 16.28128 | -89.50864 | 41107 ft | 496 kts | 26° |
| 2026-04-21 05:54 | 16.34248 | -89.47551 | 41099 ft | 496 kts | 26° |
| 2026-04-21 05:54 | 16.40381 | -89.44228 | 41097 ft | 496 kts | 25° |
| 2026-04-21 05:55 | 16.46471 | -89.40927 | 41100 ft | 496 kts | 25° |
| 2026-04-21 05:55 | 16.52605 | -89.37600 | 41095 ft | 497 kts | 25° |
| 2026-04-21 05:56 | 16.58741 | -89.34269 | 41095 ft | 497 kts | 25° |
| 2026-04-21 05:56 | 16.64869 | -89.30940 | 41098 ft | 497 kts | 25° |
| 2026-04-21 05:57 | 16.70974 | -89.27595 | 41134 ft | 494 kts | 28° |